createdAt,value
2018-12-07T00:01:33.482Z,81.15
2018-12-07T00:04:01.847Z,81.01
2018-12-07T00:06:30.695Z,80.94
2018-12-07T00:08:58.980Z,80.68
2018-12-07T00:11:27.465Z,81.20
2018-12-07T00:13:55.829Z,80.96
2018-12-07T00:16:24.271Z,81.12
2018-12-07T00:18:52.794Z,81.41
2018-12-07T00:21:21.792Z,81.18
2018-12-07T00:23:50.101Z,81.34
2018-12-07T00:26:18.655Z,81.44
2018-12-07T00:28:46.941Z,81.65
2018-12-07T00:31:15.305Z,81.69
2018-12-07T00:33:43.863Z,81.63
2018-12-07T00:36:12.448Z,81.32
2018-12-07T00:38:40.686Z,81.38
2018-12-07T00:41:09.026Z,81.60
2018-12-07T00:43:37.541Z,81.63
2018-12-07T00:46:06.111Z,81.22
2018-12-07T00:48:34.675Z,81.61
2018-12-07T00:51:03.436Z,81.65
2018-12-07T00:53:31.841Z,81.35
2018-12-07T00:56:00.249Z,81.28
2018-12-07T00:58:30.267Z,81.35
2018-12-07T01:00:58.588Z,81.65
2018-12-07T01:03:27.230Z,81.07
2018-12-07T01:05:55.729Z,80.86
2018-12-07T01:08:24.389Z,80.81
2018-12-07T01:10:52.715Z,81.15
2018-12-07T01:13:21.002Z,81.21
2018-12-07T01:15:49.708Z,81.24
2018-12-07T01:18:18.138Z,81.38
2018-12-07T01:20:46.442Z,81.09
2018-12-07T01:23:14.774Z,81.36
2018-12-07T01:25:43.228Z,80.73
2018-12-07T01:28:11.579Z,81.09
2018-12-07T01:30:39.958Z,81.12
2018-12-07T01:35:47.879Z,80.95
2018-12-07T01:38:16.259Z,81.46
2018-12-07T01:40:44.736Z,81.29
2018-12-07T01:43:13.071Z,80.82
2018-12-07T01:45:42.071Z,81.08
2018-12-07T01:48:10.357Z,80.53
2018-12-07T01:50:38.678Z,80.71
2018-12-07T01:53:07.115Z,80.45
2018-12-07T01:58:14.453Z,80.22
2018-12-07T02:00:43.261Z,80.76
2018-12-07T02:03:12.149Z,80.47
2018-12-07T02:05:40.909Z,80.83
2018-12-07T02:08:09.546Z,80.34
2018-12-07T02:10:38.036Z,80.48
2018-12-07T02:13:06.557Z,80.57
2018-12-07T02:15:34.992Z,80.70
2018-12-07T02:18:04.566Z,80.53
2018-12-07T02:20:33.267Z,79.87
2018-12-07T02:23:02.290Z,79.99
2018-12-07T02:25:30.970Z,79.62
2018-12-07T02:28:00.125Z,78.92
2018-12-07T02:30:29.007Z,79.77
2018-12-07T02:32:58.000Z,79.64
2018-12-07T02:35:26.327Z,79.38
2018-12-07T02:37:55.085Z,79.78
2018-12-07T02:40:24.056Z,79.42
2018-12-07T02:42:52.599Z,79.65
2018-12-07T02:45:20.993Z,79.76
2018-12-07T02:47:49.334Z,79.81
2018-12-07T02:50:18.490Z,79.99
2018-12-07T02:52:47.390Z,79.53
2018-12-07T02:55:16.520Z,80.07
2018-12-07T02:57:45.318Z,79.73
2018-12-07T03:00:13.701Z,79.63
2018-12-07T03:02:42.390Z,80.05
2018-12-07T03:05:11.007Z,79.84
2018-12-07T03:07:40.740Z,80.17
2018-12-07T03:10:09.123Z,80.36
2018-12-07T03:12:37.596Z,80.45
2018-12-07T03:15:05.813Z,80.56
2018-12-07T03:17:34.529Z,80.66
2018-12-07T03:20:03.086Z,80.81
2018-12-07T03:22:31.593Z,80.03
2018-12-07T03:25:00.149Z,80.64
2018-12-07T03:27:28.439Z,80.24
2018-12-07T03:29:56.705Z,80.39
2018-12-07T03:32:24.957Z,80.13
2018-12-07T03:34:53.243Z,80.37
2018-12-07T03:37:21.838Z,80.04
2018-12-07T03:39:50.378Z,79.93
2018-12-07T03:42:18.838Z,79.78
2018-12-07T03:44:47.942Z,79.85
2018-12-07T03:47:16.288Z,79.70
2018-12-07T03:49:45.085Z,79.80
2018-12-07T03:52:13.739Z,79.49
2018-12-07T03:54:42.759Z,79.05
2018-12-07T03:57:11.858Z,79.31
2018-12-07T03:59:40.454Z,79.20
2018-12-07T04:02:08.997Z,79.77
2018-12-07T04:04:37.647Z,79.59
2018-12-07T04:07:05.959Z,79.64
2018-12-07T04:09:34.333Z,79.81
2018-12-07T04:12:02.867Z,80.03
2018-12-07T04:14:31.582Z,79.72
2018-12-07T04:17:00.019Z,79.58
2018-12-07T04:19:28.462Z,79.64
2018-12-07T04:21:56.704Z,79.99
2018-12-07T04:24:25.035Z,80.15
2018-12-07T04:26:53.705Z,80.21
2018-12-07T04:29:21.990Z,80.62
2018-12-07T04:31:50.210Z,80.47
2018-12-07T04:34:19.299Z,80.10
2018-12-07T04:36:47.902Z,80.57
2018-12-07T04:39:16.446Z,80.02
2018-12-07T04:41:44.793Z,80.19
2018-12-07T04:44:13.155Z,80.18
2018-12-07T04:46:41.840Z,80.16
2018-12-07T04:49:10.244Z,79.95
2018-12-07T04:51:38.594Z,80.62
2018-12-07T04:54:06.917Z,80.01
2018-12-07T04:56:35.214Z,79.71
2018-12-07T04:59:03.465Z,79.91
2018-12-07T05:01:31.891Z,79.92
2018-12-07T05:04:00.206Z,79.61
2018-12-07T05:06:31.226Z,79.94
2018-12-07T05:09:00.206Z,78.92
2018-12-07T05:11:29.915Z,79.24
2018-12-07T05:13:58.267Z,79.69
2018-12-07T05:16:26.623Z,79.40
2018-12-07T05:18:54.974Z,79.29
2018-12-07T05:21:23.710Z,78.99
2018-12-07T05:23:52.471Z,79.65
2018-12-07T05:26:21.103Z,79.37
2018-12-07T05:28:49.423Z,79.75
2018-12-07T05:31:18.072Z,79.22
2018-12-07T05:33:46.647Z,78.97
2018-12-07T05:36:14.975Z,79.26
2018-12-07T05:38:43.361Z,79.19
2018-12-07T05:41:11.573Z,78.74
2018-12-07T05:44:12.299Z,79.61
2018-12-07T05:46:40.715Z,78.89
2018-12-07T05:49:09.079Z,78.58
2018-12-07T05:51:38.496Z,78.92
2018-12-07T05:54:07.848Z,78.74
2018-12-07T05:56:37.607Z,79.21
2018-12-07T05:59:06.193Z,78.64
2018-12-07T06:01:35.174Z,79.22
2018-12-07T06:04:03.585Z,79.11
2018-12-07T06:06:31.910Z,78.88
2018-12-07T06:09:00.235Z,78.43
2018-12-07T06:21:54.950Z,78.20
2018-12-07T06:24:23.500Z,77.83
2018-12-07T06:26:53.658Z,78.45
2018-12-07T06:29:22.295Z,78.77
2018-12-07T06:31:50.603Z,79.25
2018-12-07T06:34:19.243Z,78.56
2018-12-07T06:36:47.637Z,78.69
2018-12-07T06:39:16.569Z,78.74
2018-12-07T06:41:44.877Z,78.25
2018-12-07T06:44:13.505Z,78.15
2018-12-07T06:46:43.554Z,78.02
2018-12-07T06:49:13.194Z,77.70
2018-12-07T06:51:43.707Z,77.71
2018-12-07T06:54:12.278Z,77.61
2018-12-07T06:56:40.601Z,77.80
2018-12-07T06:59:09.653Z,77.55
2018-12-07T07:01:39.085Z,77.41
2018-12-07T07:04:07.757Z,77.76
2018-12-07T07:06:36.462Z,77.95
2018-12-07T07:09:09.382Z,77.80
2018-12-07T07:11:37.831Z,77.28
2018-12-07T07:14:06.992Z,77.97
2018-12-07T07:16:36.175Z,77.70
2018-12-07T07:19:04.776Z,77.79
2018-12-07T07:21:33.314Z,78.04
2018-12-07T07:24:02.225Z,78.06
2018-12-07T07:26:30.522Z,78.08
2018-12-07T07:28:59.148Z,77.88
2018-12-07T07:31:27.633Z,77.26
2018-12-07T07:33:56.301Z,77.42
2018-12-07T07:36:24.782Z,77.81
2018-12-07T07:38:53.186Z,77.45
2018-12-07T07:41:21.606Z,77.24
2018-12-07T07:43:50.180Z,78.36
2018-12-07T07:46:18.530Z,77.38
2018-12-07T07:48:47.088Z,76.69
2018-12-07T07:51:15.374Z,76.24
2018-12-07T07:53:43.849Z,76.64
2018-12-07T07:56:15.458Z,77.16
2018-12-07T07:58:42.922Z,76.31
2018-12-07T08:01:11.310Z,76.59
2018-12-07T08:03:40.406Z,76.36
2018-12-07T08:06:08.873Z,76.52
2018-12-07T08:08:37.301Z,76.45
2018-12-07T08:11:05.588Z,75.90
2018-12-07T08:13:33.888Z,75.89
2018-12-07T08:16:02.239Z,75.86
2018-12-07T08:18:30.543Z,75.29
2018-12-07T08:21:04.807Z,74.40
2018-12-07T08:23:33.282Z,75.31
2018-12-07T08:26:02.006Z,74.16
2018-12-07T08:28:30.315Z,73.79
2018-12-07T08:30:58.633Z,73.64
2018-12-07T08:33:28.344Z,72.32
2018-12-07T08:35:56.722Z,72.95
2018-12-07T08:38:26.003Z,72.65
2018-12-07T08:40:54.330Z,70.21
2018-12-07T08:43:22.603Z,69.45
2018-12-07T08:45:51.369Z,68.32
2018-12-07T08:48:19.840Z,68.32
2018-12-07T08:50:48.183Z,67.91
2018-12-07T08:53:16.555Z,67.34
2018-12-07T08:55:46.532Z,67.26
2018-12-07T08:58:15.183Z,66.89
2018-12-07T09:00:43.846Z,67.08
2018-12-07T09:03:12.201Z,66.33
2018-12-07T09:05:40.586Z,66.69
2018-12-07T09:08:15.090Z,66.73
2018-12-07T09:10:39.284Z,66.94
2018-12-07T09:13:07.894Z,66.16
2018-12-07T09:15:36.241Z,65.83
2018-12-07T09:18:05.013Z,66.09
2018-12-07T09:20:33.854Z,65.90
2018-12-07T09:23:02.573Z,66.07
2018-12-07T09:28:10.498Z,66.71
2018-12-07T09:30:38.795Z,66.86
2018-12-07T09:33:07.107Z,66.62
2018-12-07T09:35:35.410Z,66.37
2018-12-07T09:38:03.692Z,66.61
2018-12-07T09:40:31.989Z,66.15
2018-12-07T09:43:01.067Z,66.15
2018-12-07T09:45:29.343Z,66.63
2018-12-07T09:47:57.688Z,66.97
2018-12-07T09:50:26.002Z,66.63
2018-12-07T09:52:54.308Z,66.59
2018-12-07T09:55:22.532Z,66.58
2018-12-07T09:57:50.765Z,66.37
2018-12-07T10:00:19.221Z,66.41
2018-12-07T10:02:47.728Z,66.63
2018-12-07T10:05:16.619Z,66.21
2018-12-07T10:07:45.442Z,66.04
2018-12-07T10:10:13.722Z,66.45
2018-12-07T10:12:42.410Z,66.76
2018-12-07T10:15:10.719Z,66.70
2018-12-07T10:17:39.063Z,66.85
2018-12-07T10:20:07.870Z,66.57
2018-12-07T10:22:37.919Z,67.32
2018-12-07T10:25:06.546Z,66.55
2018-12-07T10:27:34.820Z,66.64
2018-12-07T10:30:03.821Z,66.48
2018-12-07T10:32:32.471Z,66.39
2018-12-07T10:35:01.391Z,66.22
2018-12-07T10:37:30.183Z,66.12
2018-12-07T10:39:58.629Z,66.25
2018-12-07T10:42:27.033Z,66.51
2018-12-07T10:44:55.362Z,66.33
2018-12-07T10:47:24.205Z,65.69
2018-12-07T10:49:52.786Z,64.90
2018-12-07T10:52:21.736Z,64.64
2018-12-07T10:54:50.081Z,64.71
2018-12-07T10:57:18.658Z,64.91
2018-12-07T10:59:47.027Z,64.49
2018-12-07T11:02:21.095Z,63.61
2018-12-07T11:04:56.062Z,62.84
2018-12-07T11:07:30.139Z,62.12
2018-12-07T11:10:04.147Z,61.87
2018-12-07T11:12:38.089Z,62.34
2018-12-07T11:15:12.154Z,62.88
2018-12-07T11:18:50.285Z,62.10
2018-12-07T11:21:24.347Z,62.75
2018-12-07T11:27:53.021Z,63.04
2018-12-07T11:30:30.856Z,62.93
2018-12-07T11:34:06.193Z,62.76
2018-12-07T11:36:34.537Z,63.29
2018-12-07T11:39:05.139Z,63.65
2018-12-07T11:41:33.897Z,63.50
2018-12-07T11:44:04.954Z,62.87
2018-12-07T11:46:33.567Z,63.69
2018-12-07T11:49:02.489Z,63.08
2018-12-07T11:51:31.061Z,63.97
2018-12-07T11:53:59.664Z,63.41
2018-12-07T11:56:27.968Z,63.28
2018-12-07T11:58:56.298Z,63.19
2018-12-07T12:01:25.063Z,63.41
2018-12-07T12:03:53.366Z,63.29
2018-12-07T12:06:21.977Z,63.91
2018-12-07T12:08:50.885Z,63.63
2018-12-07T12:11:21.237Z,63.42
2018-12-07T12:13:50.763Z,63.25
2018-12-07T12:16:19.064Z,63.58
2018-12-07T12:18:47.598Z,62.92
2018-12-07T12:21:16.205Z,63.51
2018-12-07T12:23:44.518Z,63.47
2018-12-07T12:26:12.795Z,63.57
2018-12-07T12:28:41.359Z,63.13
2018-12-07T12:31:09.817Z,63.14
2018-12-07T12:33:38.140Z,63.49
2018-12-07T12:36:06.823Z,62.49
2018-12-07T12:38:35.175Z,62.20
2018-12-07T12:41:03.646Z,62.88
2018-12-07T12:43:32.027Z,63.06
2018-12-07T12:46:00.492Z,63.26
2018-12-07T12:48:28.921Z,63.87
2018-12-07T12:50:59.176Z,63.62
2018-12-07T12:53:28.651Z,64.10
2018-12-07T12:55:57.115Z,63.69
2018-12-07T12:58:25.557Z,63.89
2018-12-07T13:00:53.941Z,63.87
2018-12-07T13:03:22.306Z,63.62
2018-12-07T13:05:50.644Z,64.01
2018-12-07T13:08:19.360Z,63.46
2018-12-07T13:10:47.930Z,64.02
2018-12-07T13:13:16.398Z,65.22
2018-12-07T13:15:44.990Z,65.75
2018-12-07T13:18:14.219Z,66.29
2018-12-07T13:20:42.690Z,66.76
2018-12-07T13:23:11.617Z,67.72
2018-12-07T13:25:39.869Z,68.34
2018-12-07T13:28:09.021Z,69.04
2018-12-07T13:30:37.369Z,68.44
2018-12-07T13:33:05.755Z,68.91
2018-12-07T13:35:35.065Z,69.57
2018-12-07T13:38:03.772Z,69.99
2018-12-07T13:40:32.630Z,69.91
2018-12-07T13:43:01.765Z,69.98
2018-12-07T13:45:30.778Z,70.37
2018-12-07T13:47:59.081Z,70.69
2018-12-07T13:50:34.567Z,69.79
2018-12-07T13:53:03.315Z,70.63
2018-12-07T13:55:31.869Z,70.50
2018-12-07T13:58:03.427Z,69.46
2018-12-07T14:00:31.948Z,68.98
2018-12-07T14:03:01.437Z,68.69
2018-12-07T14:05:32.300Z,68.81
2018-12-07T14:08:00.690Z,69.34
2018-12-07T14:10:29.067Z,68.80
2018-12-07T14:12:58.855Z,68.13
2018-12-07T14:15:27.214Z,67.57
2018-12-07T14:17:55.826Z,65.98
2018-12-07T14:20:24.313Z,66.12
2018-12-07T14:22:52.922Z,65.74
2018-12-07T14:29:05.159Z,67.25
2018-12-07T14:31:34.584Z,67.64
2018-12-07T14:34:04.295Z,67.78
2018-12-07T14:36:32.782Z,67.44
2018-12-07T14:39:02.318Z,66.87
2018-12-07T14:41:31.811Z,67.02
2018-12-07T14:44:00.537Z,66.12
2018-12-07T14:46:29.363Z,66.27
2018-12-07T14:48:58.226Z,66.62
2018-12-07T14:51:26.881Z,66.43
2018-12-07T14:53:55.302Z,65.79
2018-12-07T14:56:23.758Z,65.90
2018-12-07T14:58:52.330Z,65.37
2018-12-07T15:01:20.728Z,65.47
2018-12-07T15:03:49.774Z,65.70
2018-12-07T15:06:19.494Z,64.91
2018-12-07T15:08:48.353Z,65.28
2018-12-07T15:11:16.731Z,65.96
2018-12-07T15:13:45.224Z,64.57
2018-12-07T15:16:13.585Z,64.87
2018-12-07T15:18:42.264Z,64.46
2018-12-07T15:21:10.926Z,64.87
2018-12-07T15:23:39.885Z,64.22
2018-12-07T15:26:08.513Z,64.31
2018-12-07T15:28:37.306Z,63.82
2018-12-07T15:31:05.655Z,63.63
2018-12-07T15:33:34.165Z,64.31
2018-12-07T15:36:02.694Z,63.68
2018-12-07T15:38:31.064Z,64.13
2018-12-07T15:41:00.702Z,63.94
2018-12-07T15:43:29.895Z,64.33
2018-12-07T15:45:58.719Z,63.65
2018-12-07T15:48:27.992Z,64.07
2018-12-07T15:50:57.177Z,63.98
2018-12-07T15:53:25.661Z,63.92
2018-12-07T15:55:54.478Z,64.36
2018-12-07T15:58:22.943Z,64.15
2018-12-07T16:00:52.865Z,64.15
2018-12-07T16:03:22.713Z,64.07
2018-12-07T16:05:51.108Z,64.57
2018-12-07T16:08:24.980Z,64.37
2018-12-07T16:10:50.492Z,64.85
2018-12-07T16:13:19.421Z,65.45
2018-12-07T16:15:48.071Z,64.84
2018-12-07T16:18:16.402Z,65.08
2018-12-07T16:20:45.090Z,65.16
2018-12-07T16:23:13.605Z,64.50
2018-12-07T16:25:43.198Z,64.52
2018-12-07T16:28:11.822Z,64.53
2018-12-07T16:30:41.250Z,63.61
2018-12-07T16:33:10.565Z,63.91
2018-12-07T16:35:38.974Z,63.48
2018-12-07T16:38:08.217Z,63.90
2018-12-07T16:40:36.773Z,63.73
2018-12-07T16:43:05.812Z,63.25
2018-12-07T16:45:34.681Z,62.87
2018-12-07T16:48:03.861Z,62.80
2018-12-07T16:50:34.435Z,63.58
2018-12-07T16:53:03.665Z,63.60
2018-12-07T16:55:32.229Z,63.54
2018-12-07T16:58:00.841Z,62.96
2018-12-07T17:00:29.646Z,63.50
2018-12-07T17:02:58.434Z,63.66
2018-12-07T17:05:27.574Z,63.66
2018-12-07T17:10:35.898Z,63.67
2018-12-07T17:13:06.993Z,63.62
2018-12-07T17:15:37.837Z,63.97
2018-12-07T17:18:08.329Z,63.84
2018-12-07T17:20:36.989Z,63.64
2018-12-07T17:23:05.430Z,64.07
2018-12-07T17:25:34.027Z,63.44
2018-12-07T17:28:02.666Z,63.74
2018-12-07T17:30:33.485Z,63.10
2018-12-07T17:33:02.778Z,63.56
2018-12-07T17:35:31.935Z,63.55
2018-12-07T17:38:00.666Z,62.98
2018-12-07T17:40:30.163Z,62.65
2018-12-07T17:42:58.852Z,63.24
2018-12-07T17:45:27.611Z,63.00
2018-12-07T17:47:56.513Z,62.90
2018-12-07T17:50:25.519Z,62.70
2018-12-07T17:52:54.191Z,62.96
2018-12-07T17:55:24.798Z,63.57
2018-12-07T17:57:53.981Z,64.50
2018-12-07T18:00:23.426Z,64.36
2018-12-07T18:02:52.365Z,64.45
2018-12-07T18:05:20.875Z,64.60
2018-12-07T18:07:49.739Z,64.74
2018-12-07T18:10:18.841Z,65.28
2018-12-07T18:12:47.601Z,64.78
2018-12-07T18:15:16.902Z,65.46
2018-12-07T18:17:47.094Z,65.86
2018-12-07T18:20:16.343Z,66.38
2018-12-07T18:22:45.520Z,65.65
2018-12-07T18:25:14.009Z,65.44
2018-12-07T18:27:43.115Z,66.43
2018-12-07T18:30:11.681Z,65.78
2018-12-07T18:32:40.476Z,66.10
2018-12-07T18:35:09.133Z,66.37
2018-12-07T18:37:37.660Z,66.61
2018-12-07T18:40:06.528Z,66.91
2018-12-07T18:42:35.394Z,67.20
2018-12-07T18:45:04.759Z,67.54
2018-12-07T18:47:33.786Z,67.84
2018-12-07T18:50:03.151Z,68.23
2018-12-07T18:52:32.596Z,68.38
2018-12-07T18:55:01.622Z,68.64
2018-12-07T18:57:31.690Z,68.66
2018-12-07T19:00:02.770Z,69.40
2018-12-07T19:02:31.470Z,69.35
2018-12-07T19:05:00.329Z,70.03
2018-12-07T19:07:30.535Z,70.41
2018-12-07T19:09:59.429Z,70.76
2018-12-07T19:12:28.565Z,70.73
2018-12-07T19:14:57.942Z,71.09
2018-12-07T19:17:27.175Z,71.03
2018-12-07T19:19:55.587Z,71.28
2018-12-07T19:22:24.376Z,71.47
2018-12-07T19:24:55.245Z,72.13
2018-12-07T19:27:23.871Z,72.05
2018-12-07T19:29:53.327Z,71.87
2018-12-07T19:32:21.840Z,72.80
2018-12-07T19:34:50.486Z,71.98
2018-12-07T19:37:19.540Z,72.27
2018-12-07T19:39:48.005Z,72.81
2018-12-07T19:42:17.355Z,72.70
2018-12-07T19:44:47.035Z,73.27
2018-12-07T19:47:15.529Z,73.37
2018-12-07T19:49:44.131Z,72.85
2018-12-07T19:52:13.032Z,73.28
2018-12-07T19:54:42.137Z,72.88
2018-12-07T19:57:11.010Z,73.98
2018-12-07T19:59:41.007Z,74.06
2018-12-07T20:02:10.098Z,74.66
2018-12-07T20:04:39.036Z,74.39
2018-12-07T20:07:08.312Z,74.98
2018-12-07T20:09:37.346Z,74.92
2018-12-07T20:12:05.886Z,74.96
2018-12-07T20:14:34.493Z,75.55
2018-12-07T20:17:04.297Z,75.97
2018-12-07T20:19:33.502Z,76.07
2018-12-07T20:22:01.934Z,76.35
2018-12-07T20:24:31.124Z,78.31
2018-12-07T20:26:59.585Z,81.41
2018-12-07T20:29:27.904Z,82.44
2018-12-07T20:31:57.102Z,83.30
2018-12-07T20:34:25.913Z,81.75
2018-12-07T20:36:55.586Z,81.38
2018-12-07T20:39:24.548Z,80.91
2018-12-07T20:41:53.071Z,81.53
2018-12-07T20:44:21.880Z,81.21
2018-12-07T20:46:50.650Z,81.53
2018-12-07T20:49:20.339Z,80.15
2018-12-07T20:51:48.860Z,80.14
2018-12-07T20:54:18.642Z,81.13
2018-12-07T20:56:47.105Z,79.39
2018-12-07T20:59:16.486Z,80.22
2018-12-07T21:01:51.644Z,79.40
2018-12-07T21:04:29.302Z,79.56
2018-12-07T21:08:12.755Z,81.07
2018-12-07T21:10:58.478Z,79.05
2018-12-07T21:13:53.599Z,79.68
2018-12-07T21:17:14.344Z,79.53
2018-12-07T21:20:09.444Z,78.38
2018-12-07T21:22:38.165Z,77.87
2018-12-07T21:25:06.711Z,77.95
2018-12-07T21:27:36.476Z,78.12
2018-12-07T21:30:38.028Z,79.33
2018-12-07T21:33:06.710Z,79.01
2018-12-07T21:36:58.998Z,79.51
2018-12-07T21:40:36.754Z,78.05
2018-12-07T21:43:06.026Z,77.94
2018-12-07T21:45:35.005Z,78.87
2018-12-07T21:48:22.139Z,79.96
2018-12-07T21:52:14.426Z,78.11
2018-12-07T21:54:43.279Z,78.08
2018-12-07T21:57:13.114Z,77.86
2018-12-07T21:59:42.097Z,77.45
2018-12-07T22:02:11.366Z,76.71
2018-12-07T22:04:40.090Z,76.06
2018-12-07T22:07:09.539Z,75.05
2018-12-07T22:09:38.731Z,76.50
2018-12-07T22:12:07.533Z,74.88
2018-12-07T22:14:35.894Z,73.99
2018-12-07T22:17:05.267Z,74.50
2018-12-07T22:19:33.718Z,72.60
2018-12-07T22:22:02.229Z,73.69
2018-12-07T22:24:31.053Z,75.10
2018-12-07T22:27:00.934Z,75.08
2018-12-07T22:29:29.744Z,76.58
2018-12-07T22:31:58.784Z,77.86
2018-12-07T22:34:27.586Z,79.33
2018-12-07T22:36:56.962Z,76.07
2018-12-07T22:39:26.081Z,77.26
2018-12-07T22:41:54.651Z,76.53
2018-12-07T22:44:23.408Z,75.47
2018-12-07T22:46:53.322Z,73.70
2018-12-07T22:49:22.080Z,73.74
2018-12-07T22:51:51.906Z,73.49
2018-12-07T22:54:21.054Z,72.83
2018-12-07T22:56:49.464Z,71.13
2018-12-07T22:59:18.077Z,71.46
2018-12-07T23:01:46.870Z,71.21
2018-12-07T23:04:15.196Z,70.99
2018-12-07T23:06:43.565Z,70.54
2018-12-07T23:09:11.845Z,70.05
2018-12-07T23:11:40.129Z,69.73
2018-12-07T23:14:08.425Z,70.11
2018-12-07T23:16:37.382Z,71.13
2018-12-07T23:19:05.742Z,70.04
2018-12-07T23:21:34.311Z,69.09
2018-12-07T23:24:02.691Z,69.24
2018-12-07T23:26:33.862Z,68.74
2018-12-07T23:29:07.600Z,69.54
2018-12-07T23:31:38.092Z,68.50
2018-12-07T23:34:08.626Z,67.83
2018-12-07T23:36:38.842Z,68.20
2018-12-07T23:39:09.055Z,68.90
2018-12-07T23:41:37.773Z,68.11
2018-12-07T23:44:06.201Z,67.17
2018-12-07T23:46:35.288Z,68.25
2018-12-07T23:49:04.923Z,68.63
2018-12-07T23:51:35.621Z,68.35
2018-12-07T23:54:04.137Z,68.23
2018-12-07T23:56:32.741Z,68.35
2018-12-07T23:59:01.322Z,68.85
